createdAt,value
2018-12-31T00:00:41.910Z,19.97
2018-12-31T00:03:11.415Z,20.73
2018-12-31T00:05:40.991Z,20.07
2018-12-31T00:08:10.522Z,18.90
2018-12-31T00:10:41.423Z,20.67
2018-12-31T00:13:10.946Z,19.23
2018-12-31T00:15:41.896Z,20.13
2018-12-31T00:18:11.408Z,19.77
2018-12-31T00:20:40.968Z,20.10
2018-12-31T00:23:10.474Z,21.27
2018-12-31T00:25:39.967Z,21.40
2018-12-31T00:28:09.412Z,20.63
2018-12-31T00:30:40.288Z,18.60
2018-12-31T00:33:09.816Z,21.00
2018-12-31T00:35:39.291Z,19.97
2018-12-31T00:38:08.827Z,21.17
2018-12-31T00:40:38.304Z,20.37
2018-12-31T00:43:07.820Z,19.13
2018-12-31T00:45:37.304Z,19.30
2018-12-31T00:48:06.764Z,20.93
2018-12-31T00:50:36.171Z,19.60
2018-12-31T00:53:05.626Z,22.10
2018-12-31T00:55:35.107Z,21.70
2018-12-31T00:58:04.569Z,20.20
2018-12-31T01:00:35.580Z,19.67
2018-12-31T01:03:05.067Z,21.63
2018-12-31T01:05:34.646Z,21.07
2018-12-31T01:08:04.102Z,21.43
2018-12-31T01:10:33.621Z,21.50
2018-12-31T01:13:03.098Z,21.83
2018-12-31T01:15:34.034Z,21.27
2018-12-31T01:18:03.516Z,22.70
2018-12-31T01:20:33.046Z,22.80
2018-12-31T01:23:04.003Z,24.20
2018-12-31T01:25:33.595Z,22.10
2018-12-31T01:28:03.177Z,23.57
2018-12-31T01:30:32.687Z,21.40
2018-12-31T01:33:02.100Z,22.17
2018-12-31T01:35:31.611Z,22.73
2018-12-31T01:38:01.034Z,22.40
2018-12-31T01:40:32.010Z,20.77
2018-12-31T01:43:01.496Z,24.17
2018-12-31T01:45:31.047Z,21.40
2018-12-31T01:48:00.458Z,21.97
2018-12-31T01:50:31.488Z,21.87
2018-12-31T01:53:00.961Z,22.87
2018-12-31T01:55:30.487Z,21.83
2018-12-31T01:57:59.968Z,22.30
2018-12-31T02:00:29.503Z,22.07
2018-12-31T02:02:59.006Z,21.97
2018-12-31T02:05:28.922Z,21.83
2018-12-31T02:07:58.402Z,22.47
2018-12-31T02:10:27.914Z,23.50
2018-12-31T02:12:57.430Z,22.37
2018-12-31T02:15:28.215Z,22.10
2018-12-31T02:17:57.655Z,22.40
2018-12-31T02:20:27.146Z,23.00
2018-12-31T02:22:57.709Z,21.17
2018-12-31T02:25:28.478Z,22.87
2018-12-31T02:27:58.038Z,24.97
2018-12-31T02:30:27.451Z,23.63
2018-12-31T02:32:58.126Z,23.03
2018-12-31T02:35:29.053Z,23.50
2018-12-31T02:38:00.307Z,21.57
2018-12-31T02:40:31.227Z,22.50
2018-12-31T02:43:00.744Z,20.83
2018-12-31T02:45:31.947Z,19.73
2018-12-31T02:48:01.463Z,20.97
2018-12-31T02:50:31.043Z,20.13
2018-12-31T02:53:00.555Z,18.20
2018-12-31T02:55:31.586Z,18.30
2018-12-31T02:58:01.192Z,17.70
2018-12-31T03:00:32.440Z,18.37
2018-12-31T03:03:01.949Z,15.83
2018-12-31T03:05:31.547Z,16.70
2018-12-31T03:08:01.163Z,16.70
2018-12-31T03:10:30.836Z,16.47
2018-12-31T03:13:00.348Z,16.07
2018-12-31T03:15:31.295Z,14.70
2018-12-31T03:18:00.807Z,14.83
2018-12-31T03:20:30.288Z,14.50
2018-12-31T03:22:59.816Z,13.43
2018-12-31T03:25:31.163Z,14.77
2018-12-31T03:28:00.663Z,13.03
2018-12-31T03:30:31.626Z,13.20
2018-12-31T03:33:01.144Z,13.20
2018-12-31T03:35:30.826Z,13.80
2018-12-31T03:38:00.334Z,14.43
2018-12-31T03:40:29.810Z,14.50
2018-12-31T03:42:59.339Z,11.70
2018-12-31T03:45:30.126Z,13.07
2018-12-31T03:47:59.575Z,13.20
2018-12-31T03:50:30.903Z,12.50
2018-12-31T03:53:00.372Z,13.03
2018-12-31T03:55:31.325Z,12.00
2018-12-31T03:58:00.851Z,11.77
2018-12-31T04:00:31.788Z,11.47
2018-12-31T04:03:01.394Z,11.40
2018-12-31T04:05:32.227Z,11.43
2018-12-31T04:08:01.638Z,11.57
2018-12-31T04:10:31.152Z,11.60
2018-12-31T04:13:00.566Z,12.27
2018-12-31T04:15:30.074Z,11.53
2018-12-31T04:17:59.763Z,11.07
2018-12-31T04:20:29.212Z,11.20
2018-12-31T04:22:58.627Z,11.23
2018-12-31T04:25:28.142Z,10.27
2018-12-31T04:27:57.554Z,9.10
2018-12-31T04:30:28.266Z,9.80
2018-12-31T04:32:57.753Z,9.23
2018-12-31T04:35:28.561Z,10.10
2018-12-31T04:37:57.966Z,10.90
2018-12-31T04:40:27.490Z,10.50
2018-12-31T04:42:56.900Z,11.43
2018-12-31T04:45:26.414Z,9.90
2018-12-31T04:47:55.833Z,10.30
2018-12-31T04:50:25.276Z,11.17
2018-12-31T04:52:56.564Z,13.20
2018-12-31T04:55:25.791Z,10.60
2018-12-31T04:57:55.199Z,10.93
2018-12-31T05:00:25.639Z,9.63
2018-12-31T05:02:55.332Z,11.57
2018-12-31T05:05:24.784Z,11.53
2018-12-31T05:07:54.275Z,12.50
2018-12-31T05:10:23.814Z,12.13
2018-12-31T05:12:53.236Z,10.43
2018-12-31T05:15:24.067Z,10.77
2018-12-31T05:17:53.480Z,10.30
2018-12-31T05:20:24.508Z,10.00
2018-12-31T05:22:54.119Z,10.90
2018-12-31T05:25:23.611Z,11.10
2018-12-31T05:27:54.288Z,9.87
2018-12-31T05:30:23.795Z,10.40
2018-12-31T05:32:53.776Z,9.53
2018-12-31T05:35:24.903Z,9.50
2018-12-31T05:37:54.507Z,9.97
2018-12-31T05:40:23.950Z,9.83
2018-12-31T05:42:53.537Z,10.50
2018-12-31T05:45:22.930Z,10.67
2018-12-31T05:47:52.524Z,10.00
2018-12-31T05:50:23.199Z,9.33
2018-12-31T05:52:52.714Z,10.20
2018-12-31T05:55:23.007Z,10.10
2018-12-31T05:57:52.573Z,10.63
2018-12-31T06:00:22.104Z,9.47
2018-12-31T06:02:54.566Z,9.00
2018-12-31T06:05:23.937Z,10.13
2018-12-31T06:07:53.379Z,9.53
2018-12-31T06:10:24.158Z,9.50
2018-12-31T06:12:53.703Z,10.27
2018-12-31T06:15:23.108Z,9.57
2018-12-31T06:17:52.628Z,10.80
2018-12-31T06:20:22.800Z,8.90
2018-12-31T06:22:52.230Z,9.00
2018-12-31T06:25:21.650Z,8.83
2018-12-31T06:27:52.742Z,9.47
2018-12-31T06:30:22.224Z,9.30
2018-12-31T06:32:51.665Z,8.83
2018-12-31T06:35:23.374Z,8.20
2018-12-31T06:37:52.774Z,8.90
2018-12-31T06:40:22.237Z,8.30
2018-12-31T06:42:53.035Z,7.90
2018-12-31T06:45:22.434Z,8.23
2018-12-31T06:47:51.873Z,7.60
2018-12-31T06:50:22.648Z,6.30
2018-12-31T06:52:52.075Z,7.63
2018-12-31T06:55:21.469Z,7.83
2018-12-31T06:57:52.285Z,6.73
2018-12-31T07:00:21.755Z,7.00
2018-12-31T07:02:52.478Z,7.60
2018-12-31T07:05:21.878Z,7.17
2018-12-31T07:07:51.323Z,8.10
2018-12-31T07:10:20.722Z,7.30
2018-12-31T07:12:51.549Z,7.50
2018-12-31T07:15:21.023Z,7.17
2018-12-31T07:17:51.943Z,8.30
2018-12-31T07:20:21.389Z,7.50
2018-12-31T07:22:52.193Z,6.70
2018-12-31T07:25:21.693Z,7.07
2018-12-31T07:27:52.363Z,7.40
2018-12-31T07:30:21.805Z,6.70
2018-12-31T07:32:52.674Z,6.90
2018-12-31T07:35:22.187Z,6.60
2018-12-31T07:37:52.859Z,8.23
2018-12-31T07:40:22.403Z,7.20
2018-12-31T07:42:51.808Z,7.03
2018-12-31T07:45:22.616Z,7.53
2018-12-31T07:47:52.015Z,7.93
2018-12-31T07:50:21.454Z,7.50
2018-12-31T07:52:52.135Z,7.13
2018-12-31T07:55:21.580Z,7.33
2018-12-31T07:57:52.350Z,7.63
2018-12-31T08:00:21.809Z,7.13
2018-12-31T08:02:52.389Z,7.30
2018-12-31T08:05:21.873Z,6.20
2018-12-31T08:07:51.315Z,7.03
2018-12-31T08:10:20.920Z,7.97
2018-12-31T08:12:51.701Z,7.63
2018-12-31T08:15:21.204Z,7.70
2018-12-31T08:17:51.974Z,7.17
2018-12-31T08:20:21.474Z,7.03
2018-12-31T08:22:52.345Z,6.80
2018-12-31T08:25:21.787Z,7.40
2018-12-31T08:27:52.564Z,7.07
2018-12-31T08:30:21.995Z,7.43
2018-12-31T08:32:52.631Z,9.37
2018-12-31T08:35:22.143Z,8.70
2018-12-31T08:37:52.867Z,10.53
2018-12-31T08:40:22.304Z,8.40
2018-12-31T08:42:51.779Z,10.17
2018-12-31T08:45:21.243Z,15.00
2018-12-31T08:47:52.002Z,17.47
2018-12-31T08:50:21.448Z,14.90
2018-12-31T08:52:52.380Z,9.50
2018-12-31T08:55:21.789Z,7.70
2018-12-31T08:57:52.592Z,9.10
2018-12-31T09:00:21.994Z,6.97
2018-12-31T09:02:51.610Z,7.60
2018-12-31T09:05:21.098Z,8.03
2018-12-31T09:07:51.804Z,7.30
2018-12-31T09:10:21.374Z,8.53
2018-12-31T09:12:52.085Z,7.37
2018-12-31T09:15:21.565Z,11.40
2018-12-31T09:17:52.279Z,10.53
2018-12-31T09:20:21.864Z,13.57
2018-12-31T09:22:52.766Z,9.13
2018-12-31T09:25:22.172Z,8.80
2018-12-31T09:27:51.682Z,8.30
2018-12-31T09:30:22.475Z,8.30
2018-12-31T09:32:52.317Z,10.80
2018-12-31T09:35:21.773Z,13.70
2018-12-31T09:37:52.632Z,9.47
2018-12-31T09:40:22.123Z,8.33
2018-12-31T09:42:52.855Z,8.20
2018-12-31T09:45:22.335Z,8.33
2018-12-31T09:47:53.658Z,7.90
2018-12-31T09:50:23.079Z,7.37
2018-12-31T09:52:52.505Z,7.80
2018-12-31T09:55:22.020Z,7.90
2018-12-31T09:57:52.138Z,8.03
2018-12-31T10:00:23.515Z,8.33
2018-12-31T10:02:54.135Z,8.40
2018-12-31T10:05:23.640Z,8.03
2018-12-31T10:07:53.218Z,11.83
2018-12-31T10:10:23.029Z,8.23
2018-12-31T10:12:52.500Z,7.60
2018-12-31T10:15:23.398Z,7.93
2018-12-31T10:17:52.966Z,7.47
2018-12-31T10:20:23.580Z,9.73
2018-12-31T10:22:54.131Z,10.10
2018-12-31T10:25:23.644Z,9.07
2018-12-31T10:27:53.143Z,9.03
2018-12-31T10:30:22.748Z,8.97
2018-12-31T10:32:53.117Z,9.10
2018-12-31T10:35:22.843Z,8.50
2018-12-31T10:37:54.415Z,9.00
2018-12-31T10:40:25.870Z,9.70
2018-12-31T10:42:55.378Z,9.50
2018-12-31T10:45:26.059Z,9.87
2018-12-31T10:47:55.820Z,8.93
2018-12-31T10:50:26.530Z,9.10
2018-12-31T10:52:56.071Z,9.17
2018-12-31T10:55:25.662Z,13.97
2018-12-31T10:57:55.135Z,8.93
2018-12-31T11:00:26.143Z,9.30
2018-12-31T11:02:55.620Z,8.80
2018-12-31T11:05:26.332Z,8.17
2018-12-31T11:07:55.733Z,9.33
2018-12-31T11:10:25.224Z,7.80
2018-12-31T11:12:54.707Z,9.07
2018-12-31T11:15:24.145Z,6.47
2018-12-31T11:17:53.574Z,6.23
2018-12-31T11:20:24.355Z,9.80
2018-12-31T11:22:53.805Z,11.53
2018-12-31T11:25:23.205Z,9.87
2018-12-31T11:27:52.642Z,11.30
2018-12-31T11:30:22.067Z,9.17
2018-12-31T11:32:51.514Z,11.30
2018-12-31T11:35:21.049Z,6.70
2018-12-31T11:37:51.759Z,6.70
2018-12-31T11:40:21.168Z,5.57
2018-12-31T11:42:51.970Z,7.73
2018-12-31T11:45:21.434Z,5.67
2018-12-31T11:47:52.343Z,7.53
2018-12-31T11:50:21.818Z,5.53
2018-12-31T11:52:52.823Z,7.43
2018-12-31T11:55:22.223Z,8.13
2018-12-31T11:57:52.934Z,9.17
2018-12-31T12:00:22.347Z,6.70
2018-12-31T12:02:53.355Z,6.60
2018-12-31T12:05:22.757Z,8.13
2018-12-31T12:07:52.192Z,11.17
2018-12-31T12:10:21.667Z,8.30
2018-12-31T12:12:52.575Z,8.77
2018-12-31T12:15:22.049Z,11.07
2018-12-31T12:17:52.879Z,10.37
2018-12-31T12:20:22.291Z,13.07
2018-12-31T12:22:51.708Z,10.43
2018-12-31T12:25:22.323Z,14.47
2018-12-31T12:27:51.734Z,14.53
2018-12-31T12:30:21.175Z,11.50
2018-12-31T12:32:52.052Z,19.70
2018-12-31T12:35:21.505Z,11.87
2018-12-31T12:37:52.286Z,12.10
2018-12-31T12:40:21.799Z,12.37
2018-12-31T12:42:51.517Z,14.70
2018-12-31T12:45:21.026Z,21.17
2018-12-31T12:47:51.710Z,13.07
2018-12-31T12:50:21.159Z,13.73
2018-12-31T12:52:51.940Z,12.10
2018-12-31T12:55:21.390Z,17.37
2018-12-31T12:57:52.171Z,15.77
2018-12-31T13:00:21.616Z,11.47
2018-12-31T13:02:52.398Z,11.47
2018-12-31T13:05:22.138Z,16.43
2018-12-31T13:07:51.610Z,18.23
2018-12-31T13:10:21.063Z,14.83
2018-12-31T13:12:51.845Z,15.63
2018-12-31T13:15:21.298Z,19.37
2018-12-31T13:17:52.590Z,12.60
2018-12-31T13:20:22.048Z,12.17
2018-12-31T13:22:51.535Z,17.67
2018-12-31T13:25:21.147Z,11.70
2018-12-31T13:27:51.735Z,11.07
2018-12-31T13:30:21.181Z,16.60
2018-12-31T13:32:51.958Z,17.57
2018-12-31T13:35:21.475Z,12.73
2018-12-31T13:37:52.250Z,12.07
2018-12-31T13:40:22.011Z,11.90
2018-12-31T13:42:51.425Z,11.10
2018-12-31T13:45:22.211Z,16.30
2018-12-31T13:47:53.336Z,11.37
2018-12-31T13:50:22.748Z,11.00
2018-12-31T13:52:52.191Z,14.70
2018-12-31T13:55:21.754Z,12.53
2018-12-31T13:57:52.570Z,11.33
2018-12-31T14:00:41.474Z,12.37
2018-12-31T14:03:17.156Z,13.80
2018-12-31T14:05:42.114Z,15.77
2018-12-31T14:08:11.620Z,13.27
2018-12-31T14:10:42.607Z,21.70
2018-12-31T14:13:12.126Z,19.80
2018-12-31T14:15:42.914Z,21.00
2018-12-31T14:18:12.354Z,20.23
2018-12-31T14:20:43.130Z,18.40
2018-12-31T14:23:12.878Z,15.50
2018-12-31T14:25:43.565Z,21.57
2018-12-31T14:28:12.999Z,13.90
2018-12-31T14:30:43.750Z,14.13
2018-12-31T14:33:13.204Z,14.10
2018-12-31T14:35:45.938Z,13.87
2018-12-31T14:38:15.063Z,14.10
2018-12-31T14:40:44.483Z,13.37
2018-12-31T14:43:14.801Z,13.30
2018-12-31T14:45:44.614Z,15.03
2018-12-31T14:48:14.122Z,13.67
2018-12-31T14:50:44.875Z,17.00
2018-12-31T14:53:14.358Z,13.23
2018-12-31T14:55:45.046Z,14.77
2018-12-31T14:58:14.694Z,12.03
2018-12-31T15:00:45.586Z,13.47
2018-12-31T15:03:15.043Z,14.03
2018-12-31T15:05:44.598Z,14.90
2018-12-31T15:08:14.112Z,14.90
2018-12-31T15:10:44.828Z,14.43
2018-12-31T15:13:14.239Z,14.17
2018-12-31T15:15:45.237Z,14.10
2018-12-31T15:18:14.785Z,14.43
2018-12-31T15:20:46.111Z,14.93
2018-12-31T15:23:15.626Z,14.80
2018-12-31T15:25:46.343Z,14.40
2018-12-31T15:28:15.819Z,14.50
2018-12-31T15:30:46.635Z,14.60
2018-12-31T15:33:16.060Z,16.40
2018-12-31T15:35:45.574Z,17.13
2018-12-31T15:38:14.983Z,18.70
2018-12-31T15:40:44.426Z,18.57
2018-12-31T15:43:13.838Z,25.60
2018-12-31T15:45:43.447Z,20.20
2018-12-31T15:48:12.934Z,20.57
2018-12-31T15:50:42.447Z,17.60
2018-12-31T15:53:11.856Z,16.70
2018-12-31T15:55:42.581Z,16.83
2018-12-31T15:58:12.059Z,17.03
2018-12-31T16:00:41.498Z,15.53
2018-12-31T16:03:10.921Z,15.63
2018-12-31T16:05:41.759Z,15.27
2018-12-31T16:08:11.467Z,16.30
2018-12-31T16:10:40.983Z,17.13
2018-12-31T16:13:10.469Z,18.03
2018-12-31T16:15:40.062Z,16.73
2018-12-31T16:18:09.513Z,17.50
2018-12-31T16:20:40.182Z,19.07
2018-12-31T16:23:09.695Z,16.67
2018-12-31T16:25:40.411Z,47.30
2018-12-31T16:28:09.923Z,19.20
2018-12-31T16:30:40.612Z,21.27
2018-12-31T16:33:10.055Z,54.60
2018-12-31T16:35:39.469Z,70.67
2018-12-31T16:38:08.905Z,23.73
2018-12-31T16:40:39.677Z,27.20
2018-12-31T16:43:09.126Z,63.00
2018-12-31T16:45:38.615Z,50.00
2018-12-31T16:48:08.074Z,18.47
2018-12-31T16:50:39.037Z,33.33
2018-12-31T16:53:08.489Z,17.17
2018-12-31T16:55:39.390Z,19.80
2018-12-31T16:58:08.828Z,19.23
2018-12-31T17:00:39.522Z,19.77
2018-12-31T17:03:09.042Z,18.33
2018-12-31T17:05:39.731Z,18.10
2018-12-31T17:08:09.450Z,25.03
2018-12-31T17:10:38.935Z,35.83
2018-12-31T17:13:08.371Z,19.73
2018-12-31T17:15:39.158Z,29.10
2018-12-31T17:18:08.604Z,17.13
2018-12-31T17:20:39.704Z,21.43
2018-12-31T17:23:09.146Z,16.50
2018-12-31T17:25:39.956Z,18.50
2018-12-31T17:28:09.401Z,39.70
2018-12-31T17:30:38.811Z,18.37
2018-12-31T17:33:08.239Z,15.93
2018-12-31T17:35:38.939Z,17.50
2018-12-31T17:38:08.418Z,22.73
2018-12-31T17:40:37.943Z,22.00
2018-12-31T17:43:07.348Z,18.87
2018-12-31T17:45:38.263Z,17.37
2018-12-31T17:48:07.670Z,17.17
2018-12-31T17:50:49.814Z,18.30
2018-12-31T17:53:19.234Z,20.20
2018-12-31T17:55:48.673Z,18.23
2018-12-31T17:58:18.152Z,18.70
2018-12-31T18:00:47.592Z,18.37
2018-12-31T18:03:17.069Z,17.00
2018-12-31T18:05:47.893Z,17.80
2018-12-31T18:08:17.306Z,16.90
2018-12-31T18:10:48.124Z,16.57
2018-12-31T18:13:17.539Z,17.73
2018-12-31T18:15:46.979Z,17.10
2018-12-31T18:18:16.696Z,23.90
2018-12-31T18:20:46.250Z,18.07
2018-12-31T18:23:15.708Z,23.63
2018-12-31T18:25:45.157Z,18.83
2018-12-31T18:28:14.632Z,19.13
2018-12-31T18:30:44.243Z,23.77
2018-12-31T18:33:13.734Z,25.13
2018-12-31T18:35:43.446Z,27.50
2018-12-31T18:38:12.861Z,19.27
2018-12-31T18:40:43.683Z,21.93
2018-12-31T18:43:13.091Z,20.80
2018-12-31T18:45:43.867Z,24.90
2018-12-31T18:48:13.350Z,19.33
2018-12-31T18:50:44.175Z,19.77
2018-12-31T18:53:13.686Z,19.33
2018-12-31T18:55:43.131Z,22.60
2018-12-31T18:58:12.540Z,20.17
2018-12-31T19:00:43.370Z,32.53
2018-12-31T19:03:12.779Z,29.20
2018-12-31T19:05:44.168Z,21.03
2018-12-31T19:08:13.574Z,23.00
2018-12-31T19:10:43.094Z,24.40
2018-12-31T19:13:12.721Z,24.10
2018-12-31T19:15:42.155Z,31.03
2018-12-31T19:18:11.931Z,24.93
2018-12-31T19:20:42.746Z,33.17
2018-12-31T19:23:12.170Z,24.93
2018-12-31T19:25:42.888Z,23.13
2018-12-31T19:28:12.372Z,22.40
2018-12-31T19:30:43.286Z,23.43
2018-12-31T19:33:12.717Z,25.07
2018-12-31T19:35:42.350Z,22.30
2018-12-31T19:38:11.821Z,22.60
2018-12-31T19:40:41.331Z,22.13
2018-12-31T19:43:10.773Z,23.03
2018-12-31T19:45:40.278Z,23.07
2018-12-31T19:48:09.771Z,23.37
2018-12-31T19:50:40.501Z,22.53
2018-12-31T19:53:09.902Z,24.67
2018-12-31T19:55:39.571Z,25.13
2018-12-31T19:58:09.074Z,21.30
2018-12-31T20:00:39.894Z,23.20
2018-12-31T20:03:09.313Z,20.80
2018-12-31T20:05:40.066Z,24.30
2018-12-31T20:08:09.543Z,25.00
2018-12-31T20:10:40.360Z,41.33
2018-12-31T20:13:09.806Z,22.80
2018-12-31T20:15:48.383Z,21.53
2018-12-31T20:18:11.763Z,24.63
2018-12-31T20:20:41.479Z,20.60
2018-12-31T20:23:10.923Z,19.50
2018-12-31T20:25:41.775Z,24.47
2018-12-31T20:28:11.224Z,22.60
2018-12-31T20:30:42.619Z,25.30
2018-12-31T20:33:12.060Z,20.33
2018-12-31T20:35:42.947Z,20.60
2018-12-31T20:38:12.410Z,19.87
2018-12-31T20:40:43.202Z,21.50
2018-12-31T20:43:14.342Z,22.37
2018-12-31T20:45:43.760Z,40.90
2018-12-31T20:48:13.211Z,71.30
2018-12-31T20:50:42.701Z,74.83
2018-12-31T20:53:12.183Z,46.17
2018-12-31T20:55:42.923Z,28.80
2018-12-31T20:58:12.416Z,23.60
2018-12-31T21:00:43.146Z,21.63
2018-12-31T21:03:12.663Z,20.53
2018-12-31T21:05:42.087Z,21.13
2018-12-31T21:08:11.658Z,20.90
2018-12-31T21:10:41.244Z,21.33
2018-12-31T21:13:10.759Z,21.33
2018-12-31T21:15:41.538Z,21.60
2018-12-31T21:18:11.077Z,21.80
2018-12-31T21:20:41.067Z,23.43
2018-12-31T21:23:10.517Z,24.50
2018-12-31T21:25:41.302Z,21.33
2018-12-31T21:28:10.862Z,36.10
2018-12-31T21:30:40.443Z,23.73
2018-12-31T21:33:10.464Z,21.40
2018-12-31T21:35:43.300Z,20.50
2018-12-31T21:38:12.699Z,19.53
2018-12-31T21:40:43.592Z,22.60
2018-12-31T21:43:13.505Z,30.40
2018-12-31T21:45:43.613Z,21.53
2018-12-31T21:48:13.078Z,20.80
2018-12-31T21:50:42.487Z,23.87
2018-12-31T21:53:12.074Z,20.67
2018-12-31T21:55:42.818Z,19.93
2018-12-31T21:58:12.378Z,19.83
2018-12-31T22:00:43.058Z,20.97
2018-12-31T22:03:12.620Z,23.70
2018-12-31T22:05:42.097Z,20.43
2018-12-31T22:08:11.623Z,20.50
2018-12-31T22:10:42.634Z,20.87
2018-12-31T22:13:12.050Z,19.10
2018-12-31T22:15:42.771Z,20.70
2018-12-31T22:18:12.187Z,19.20
2018-12-31T22:20:43.002Z,19.70
2018-12-31T22:23:12.416Z,19.97
2018-12-31T22:25:42.043Z,22.57
2018-12-31T22:28:11.513Z,19.87
2018-12-31T22:30:42.331Z,20.33
2018-12-31T22:33:11.812Z,23.47
2018-12-31T22:35:41.254Z,18.47
2018-12-31T22:38:10.714Z,20.67
2018-12-31T22:40:40.124Z,18.53
2018-12-31T22:43:09.618Z,19.33
2018-12-31T22:45:39.184Z,18.40
2018-12-31T22:48:08.674Z,21.00
2018-12-31T22:50:38.306Z,20.67
2018-12-31T22:53:07.810Z,20.10
2018-12-31T22:55:38.612Z,19.57
2018-12-31T22:58:08.351Z,20.70
2018-12-31T23:00:38.247Z,21.20
2018-12-31T23:03:09.419Z,36.90
2018-12-31T23:05:39.901Z,28.93
2018-12-31T23:08:09.995Z,29.47
2018-12-31T23:10:39.721Z,110.90
2018-12-31T23:13:09.292Z,84.60
2018-12-31T23:15:40.386Z,47.33
2018-12-31T23:18:09.872Z,40.57
2018-12-31T23:20:41.002Z,40.43
2018-12-31T23:23:10.474Z,38.83
2018-12-31T23:25:41.193Z,27.27
2018-12-31T23:28:10.723Z,26.07
2018-12-31T23:30:41.400Z,31.47
2018-12-31T23:33:11.419Z,27.40
2018-12-31T23:35:42.172Z,26.10
2018-12-31T23:38:11.611Z,39.27
2018-12-31T23:40:41.016Z,28.10
2018-12-31T23:43:10.539Z,27.80
2018-12-31T23:45:40.631Z,24.87
2018-12-31T23:48:10.142Z,24.90
2018-12-31T23:50:39.560Z,23.67
2018-12-31T23:53:09.006Z,25.40
2018-12-31T23:55:38.566Z,25.00
2018-12-31T23:58:08.089Z,25.47
